Portada
METAR-TAF:

METAR-TAF

Aeroports :

Aeroport de Lugano

Lugano, Suïssa

latitud: 46-00N, longitud: 008-58E, altitud: 273 m

Observació

L'informe es va fer fa 28 minuts, a les 02:20 UTC
Vent 1 kt amb direcció variable
Temperatura 5°C
Humitat 100%
Pressió 1020 hPa
Visibilitat: 2000 m
Núvols disperses a una alçada de 3100 ft
Núvols disperses a una alçada de 3500 ft
Cel ennuvolat a una alçada de 5500 ft
boirina

METAR: LSZA 160220Z AUTO VRB01KT 2000 BR SCT031 SCT035 BKN055 05/05 Q1020

Hora: 03:48 (02:48 UTC)

Pronòstic

L'informe es va fer fa 12 hores i 23 minuts, a les 14:25 UTC
Pronòstic vàlid del 15 a les 15 UTC al 15 a les 24 UTC
Vent 3 kt amb direcció variable
Visibilitat 10 km o més
Cel ennuvolat a una alçada de 5500 ft
Probabilitat 30% :
Temporalment
l' 15 a les 21 UTC al 15 a les 23 UTC
pluja

TAF: LSZA 151425Z 1515/1524 VRB03KT 9999 BKN055 PROB30 TEMPO 1521/1523 RA

Observacions i pronòstics meteorològics de més de 4000 aeroports (METAR i TAF).

Les estacions disponibles són els punts grocs i vermells al mapa.

Posi el ratolí al punt desitjat per veure el nom de l'estació.

Feu clic per veure les observacions i els pronòstics meteorològics.

Per canviar el mapa: feu clic els botons verds amb una creu de color negre per apropar; al botó verd amb un guió per allunyar la imatge; o en les fletxes verdes per a mapes adjacents.


METAR-TAF: